Hauptseite
METAR-TAF:

METAR-TAF

Flughäfen :

Militärflugplatz Luxeuil-Saint Sauveur

Luxeuil-les-Bains, Frankreich

Breite: 47-47N, Länge: 006-21E, Höhe: 278 m

Beobachtung

Neuester Wetterbericht von vor 25 Minuten, um 03:00 UTC
Wind 2 kt aus Südost
Temperatur 6°C
Luftfeuchtigkeit 87%
Luftdruck 1017 hPa
Sichtweite 10 km oder mehr
keine Wolken unter 1500 m und keine Kumulonimbus oder Gewitterwolken

METAR: LFSX 160300Z AUTO 14002KT CAVOK 06/04 Q1017

Zeit: 05:25 (03:25 UTC)

Prognose

Neuester Wetterbericht von vor 13 Stunden und 25 Minuten, um 14:00 UTC
Gültige Prognose vom 15 um 15 UTC bis 16 um 15 UTC
Wind 7 kt aus Südost
Sichtweite 10 km oder mehr
keine Wolken unter 1500 m und keine Kumulonimbus oder Gewitterwolken

TAF: LFSX 151400Z 1515/1615 14007KT CAVOK

Wetterbeobachtungen und Prognosen von mehr als 4000 Flughäfen (METAR und TAF Bericht).

Die verfügbaren Stationen werden durch gelbe und rote Markierungen auf der Karte dargestellt.

Führen Sie die Maus auf sie, um den Namen der Station zu sehen.

Darauf klicken, um die Beobachtung von Wetterbeobachtungen und Prognosen zu sehen.

Um die Karte zu ändern : klicken Sie auf den grünen Tasten mit einem schwarzen Kreuz Zum Vergrößern, auf den grünen Button mit einem Gedankenstrich zu verkleinern, oder auf die grünen Pfeile für benachbarte Karten.


METAR-TAF: